Latest Coastal Weather Observations for Karratha

IDW60701

Issued at 12:53 pm WST Thursday 21 September 2017 (issued every 10 minutes, with the page automatically refreshed every 10 minutes)

About coastal observations | Map of coastal stations | Coastal observations for WA | Marine services | Other Formats
Station Details ID: 004083 Name: KARRATHA AERO Lat: -20.71 Lon: 116.77 Height: 5.3 m
Data from the previous 72 hours. | See also: Recent months at Karratha
Date/Time
WST
Temp
°C
Wind Pressure Rain since
9am
mm
Weather Cloud Vis
km
Sea
Height
m
Swell
Dir  Spd
kts
Gust
kts
hPa Trend Height
m
Period
s
Dir
21/12:30pm 33.1 W 10 13 1011.2 - 0.0 - - 10 - - - -
21/12:00pm 32.8 W 9 12 1011.7 - 0.0 - - 10 - - - -
21/11:30am 32.2 W 8 10 1012.2 - 0.0 - - 10 - - - -
21/11:00am 31.2 W 9 11 1012.7 - 0.0 - - 10 - - - -
21/10:30am 31.0 W 8 10 1013.0 - 0.0 - - 10 - - - -
21/10:00am 30.4 W 6 7 1013.3 - 0.0 - - 10 - - - -
21/09:30am 29.1 W 7 8 1013.1 - 0.0 - - 10 - - - -
21/09:00am 27.9 WSW 7 8 1013.2 - 0.0 - - 10 - - - -
21/08:30am 26.0 W 6 7 1013.3 - 0.0 - - 10 - - - -
21/08:00am 24.8 WSW 6 8 1013.1 - 0.0 - - 10 - - - -
21/07:30am 23.3 WSW 7 8 1012.9 - 0.0 - - 10 - - - -
21/07:00am 21.6 WSW 6 8 1012.6 - 0.0 - - 10 - - - -
21/06:30am 20.2 SW 7 8 1012.4 - 0.0 - - 10 - - - -
21/06:00am 20.8 SW 8 8 1012.0 - 0.0 - - 10 - - - -
21/05:30am 22.8 WSW 8 10 1011.9 - 0.0 - - 10 - - - -
21/05:00am 22.9 WSW 7 8 1011.8 - 0.0 - - 10 - - - -
21/04:30am 23.8 W 8 9 1011.6 - 0.0 - - 10 - - - -
21/04:00am 23.7 WNW 7 8 1011.5 - 0.0 - - 10 - - - -
21/03:30am 22.9 W 9 10 1011.3 - 0.0 - - 10 - - - -
21/03:00am 22.8 WSW 8 10 1011.3 - 0.0 - - 10 - - - -
21/02:30am 23.3 WSW 10 13 1011.5 - 0.0 - - 10 - - - -
21/02:00am 23.1 WSW 9 11 1011.6 - 0.0 - - 10 - - - -
21/01:30am 23.9 WSW 13 16 1011.6 - 0.0 - - 10 - - - -
21/01:00am 24.4 WSW 14 18 1011.7 - 0.0 - - 10 - - - -
21/12:30am 24.8 WSW 12 15 1012.0 - 0.0 - - 10 - - - -
21/12:00am 25.7 WSW 14 17 1012.2 - 0.0 - - 10 - - - -
 
Date/Time
WST
Temp
°C
Wind Pressure Rain since
9am
mm
Weather Cloud Vis
km
Sea
Height
m
Swell
Dir  Spd
kts
Gust
kts
hPa Trend Height
m
Period
s
Dir
20/11:30pm 25.9 W 13 16 1012.3 - 0.0 - - 10 - - - -
20/11:00pm 26.1 W 14 16 1012.4 - 0.0 - - 10 - - - -
20/10:30pm 26.7 W 12 15 1012.6 - 0.0 - - 10 - - - -
20/10:00pm 27.0 W 11 15 1012.6 - 0.0 - - 10 - - - -
20/09:30pm 27.7 WNW 9 11 1012.6 - 0.0 - - 10 - - - -
20/09:00pm 27.6 W 10 13 1012.4 - 0.0 - - 10 - - - -
20/08:30pm 27.9 W 10 11 1012.2 - 0.0 - - 10 - - - -
20/08:00pm 28.1 W 10 11 1011.9 - 0.0 - - 10 - - - -
20/07:30pm 28.1 WSW 9 10 1011.5 - 0.0 - - 10 - - - -
20/07:00pm 28.2 WSW 9 12 1011.3 - 0.0 - - 10 - - - -
20/06:30pm 29.0 W 11 14 1011.1 - 0.0 - - 10 - - - -
20/06:00pm 29.7 W 11 15 1010.9 - 0.0 - - 10 - - - -
20/05:30pm 30.6 W 15 18 1010.6 - 0.0 - - 10 - - - -
20/05:00pm 31.5 W 15 19 1010.5 - 0.0 - - 10 - - - -
20/04:30pm 32.6 WNW 14 17 1010.4 - 0.0 - - 10 - - - -
20/04:00pm 32.8 WNW 15 18 1010.5 - 0.0 - - 10 - - - -
20/03:30pm 32.8 WNW 14 17 1010.9 - 0.0 - - 10 - - - -
20/03:00pm 33.4 W 15 18 1011.1 - 0.0 - - 10 - - - -
20/02:30pm 34.4 W 15 19 1011.4 - 0.0 - - 10 - - - -
20/02:00pm 35.8 W 13 15 1011.7 - 0.0 - - 10 - - - -
20/01:30pm 35.7 WNW 11 13 1012.2 - 0.0 - - 10 - - - -
20/01:00pm 35.9 WNW 11 14 1012.6 - 0.0 - - 10 - - - -
20/12:30pm 35.9 WNW 10 12 1012.8 - 0.0 - - 10 - - - -
20/12:00pm 36.7 NW 9 11 1013.0 - 0.0 - - 10 - - - -
20/11:30am 36.5 W 8 12 1013.5 - 0.0 - - 10 - - - -
20/11:00am 36.1 W 9 11 1014.0 - 0.0 - - 10 - - - -
20/10:30am 35.5 WSW 8 15 1014.2 - 0.0 - - 10 - - - -
20/10:00am 32.8 W 5 8 1014.7 - 0.0 - - 10 - - - -
20/09:30am 30.4 WNW 7 8 1014.9 - 0.0 - - 10 - - - -
20/09:00am 29.3 W 6 8 1015.0 - 0.0 - - 10 - - - -
20/08:30am 28.0 W 6 8 1015.0 - 0.0 - - 10 - - - -
20/08:00am 26.9 WSW 5 6 1015.0 - 0.0 - - 10 - - - -
20/07:30am 25.3 W 4 5 1014.7 - 0.0 - - 10 - - - -
20/07:00am 20.9 CALM 0 3 1014.3 - 0.0 - - 10 - - - -
20/06:30am 19.5 CALM 0 2 1014.0 - 0.0 - - 10 - - - -
20/06:00am 19.7 CALM 0 0 1013.7 - 0.0 - - 10 - - - -
20/05:30am 19.5 CALM 0 0 1013.4 - 0.0 - - 10 - - - -
20/05:00am 20.7 CALM 0 0 1013.2 - 0.0 - - 10 - - - -
20/04:30am 20.4 WSW 3 3 1013.2 - 0.0 - - 10 - - - -
20/04:00am 21.2 W 4 6 1013.0 - 0.0 - - 10 - - - -
20/03:30am 23.9 W 7 8 1012.9 - 0.0 - - 10 - - - -
20/03:00am 24.5 W 6 7 1013.0 - 0.0 - - 10 - - - -
20/02:30am 24.5 W 6 7 1013.1 - 0.0 - - 10 - - - -
20/02:00am 24.8 W 7 8 1013.2 - 0.0 - - 10 - - - -
20/01:30am 24.1 W 6 7 1013.2 - 0.0 - - 10 - - - -
20/01:00am 24.1 WSW 7 8 1013.6 - 0.0 - - 10 - - - -
20/12:30am 24.1 WSW 7 8 1013.9 - 0.0 - - 10 - - - -
20/12:00am 24.7 WSW 9 11 1014.0 - 0.0 - - 10 - - - -
 
Date/Time
WST
Temp
°C
Wind Pressure Rain since
9am
mm
Weather Cloud Vis
km
Sea
Height
m
Swell
Dir  Spd
kts
Gust
kts
hPa Trend Height
m
Period
s
Dir
19/11:30pm 25.2 WSW 10 13 1014.2 - 0.0 - - 10 - - - -
19/11:00pm 25.5 WSW 11 13 1014.4 - 0.0 - - 10 - - - -
19/10:30pm 26.0 WSW 12 15 1014.7 - 0.0 - - 10 - - - -
19/10:00pm 26.4 WSW 9 11 1014.8 - 0.0 - - 10 - - - -
19/09:30pm 26.5 WSW 11 13 1014.7 - 0.0 - - 10 - - - -
19/09:00pm 27.4 WSW 11 13 1014.7 - 0.0 - - 10 - - - -
19/08:30pm 27.5 WSW 7 11 1014.6 - 0.0 - - 10 - - - -
19/08:00pm 28.1 W 12 15 1014.5 - 0.0 - - 10 - - - -
19/07:30pm 28.5 W 11 13 1014.2 - 0.0 - - 10 - - - -
19/07:00pm 29.1 W 11 13 1013.9 - 0.0 - - 10 - - - -
19/06:30pm 29.5 W 9 13 1013.6 - 0.0 - - 10 - - - -
19/06:00pm 30.2 WNW 9 11 1013.5 - 0.0 - - 10 - - - -
19/05:30pm 31.2 NNW 9 12 1013.2 - 0.0 - - 10 - - - -
19/05:00pm 32.0 NW 9 11 1013.1 - 0.0 - - 10 - - - -
19/04:30pm 32.2 NNW 11 13 1013.2 - 0.0 - - 10 - - - -
19/04:00pm 33.3 NW 9 11 1013.2 - 0.0 - - 10 - - - -
19/03:30pm 35.3 NNE 14 16 1013.1 - 0.0 - - 10 - - - -
19/03:00pm 35.8 NNE 13 17 1013.3 - 0.0 - - 10 - - - -
19/02:30pm 35.4 NNE 15 19 1013.4 - 0.0 - - 10 - - - -
19/02:00pm 35.4 NE 16 19 1013.5 - 0.0 - - 10 - - - -
19/01:30pm 35.1 NE 17 21 1013.9 - 0.0 - - 10 - - - -
19/01:00pm 35.6 NE 15 19 1014.3 - 0.0 - - 10 - - - -
19/12:30pm 36.0 NNE 12 16 1015.0 - 0.0 - - 10 - - - -
19/12:00pm 36.3 NNE 13 16 1015.3 - 0.0 - - 10 - - - -
19/11:42am 36.5 NE 11 22 1015.4 - 0.0 - - 10 - - - -
19/11:30am 37.5 NNE 7 11 1015.6 - 0.0 - - 10 - - - -
19/11:00am 36.3 NNW 5 7 1016.1 - 0.0 - - 10 - - - -
19/10:30am 34.5 NNW 4 8 1016.6 - 0.0 - - 10 - - - -
19/10:00am 32.9 NNW 4 6 1016.9 - 0.0 - - 10 - - - -
19/09:30am 30.6 NNW 5 6 1017.0 - 0.0 - - 10 - - - -
19/09:00am 29.5 NNW 4 6 1017.2 - 0.0 - - 10 - - - -
19/08:30am 28.5 NW 1 4 1017.3 - 0.0 - - 10 - - - -
19/08:00am 27.2 ESE 5 6 1017.2 - 0.0 - - 10 - - - -
19/07:30am 24.2 SSE 3 4 1016.7 - 0.0 - - 10 - - - -
19/07:00am 21.0 ENE 3 5 1016.5 - 0.0 - - 10 - - - -
19/06:30am 19.4 SSW 4 6 1016.0 - 0.0 - - 10 - - - -
19/06:00am 19.5 SW 6 7 1015.8 - 0.0 - - 10 - - - -
19/05:30am 20.6 SW 6 7 1015.6 - 0.0 - - 10 - - - -
19/05:00am 19.2 WSW 5 6 1015.6 - 0.0 - - 10 - - - -
19/04:30am 20.0 SW 4 4 1015.3 - 0.0 - - 10 - - - -
19/04:00am 21.0 CALM 0 0 1015.1 - 0.0 - - 10 - - - -
19/03:30am 21.7 SW 4 5 1015.2 - 0.0 - - 10 - - - -
19/03:00am 20.7 SSW 6 6 1015.4 - 0.0 - - 10 - - - -
19/02:30am 20.0 S 5 6 1015.6 - 0.0 - - 10 - - - -
19/02:00am 21.7 CALM 0 0 1015.8 - 0.0 - - 10 - - - -
19/01:30am 21.9 SW 2 4 1016.1 - 0.0 - - 10 - - - -
19/01:00am 21.0 SSE 1 5 1016.4 - 0.0 - - 10 - - - -
19/12:30am 21.8 CALM 0 4 1016.4 - 0.0 - - 10 - - - -
19/12:00am 22.5 ESE 5 9 1016.8 - 0.0 - - 10 - - - -
 
Date/Time
WST
Temp
°C
Wind Pressure Rain since
9am
mm
Weather Cloud Vis
km
Sea
Height
m
Swell
Dir  Spd
kts
Gust
kts
hPa Trend Height
m
Period
s
Dir
18/11:30pm 23.2 NW 3 5 1016.6 - 0.0 - - 10 - - - -
18/11:00pm 23.5 SW 4 5 1016.7 - 0.0 - - 10 - - - -
18/10:30pm 23.7 SW 7 8 1016.7 - 0.0 - - 10 - - - -
18/10:00pm 23.9 SW 7 9 1017.0 - 0.0 - - 10 - - - -
18/09:30pm 24.4 SW 6 7 1017.0 - 0.0 - - 10 - - - -
18/09:00pm 26.7 WSW 8 11 1016.7 - 0.0 - - 10 - - - -
18/08:30pm 26.4 SW 7 9 1016.4 - 0.0 - - 10 - - - -
18/08:00pm 27.6 WSW 5 8 1016.2 - 0.0 - - 10 - - - -
18/07:30pm 27.9 W 7 9 1015.8 - 0.0 - - 10 - - - -
18/07:00pm 27.8 W 3 6 1015.4 - 0.0 - - 10 - - - -
18/06:30pm 27.9 NNW 7 9 1014.9 - 0.0 - - 10 - - - -
18/06:00pm 28.9 NNW 8 11 1014.6 - 0.0 - - 10 - - - -
18/05:30pm 30.8 NNW 7 9 1014.4 - 0.0 - - 10 - - - -
18/05:00pm 33.2 NNW 8 10 1014.3 - 0.0 - - 10 - - - -
18/04:30pm 33.0 NNE 9 11 1014.3 - 0.0 - - 10 - - - -
18/04:00pm 33.3 NNE 11 14 1014.4 - 0.0 - - 10 - - - -
18/03:30pm 34.1 NNE 11 13 1014.5 - 0.0 - - 10 - - - -
18/03:00pm 35.2 NE 11 13 1014.5 - 0.0 - - 10 - - - -
18/02:30pm 35.8 NE 10 12 1014.6 - 0.0 - - 10 - - - -
18/02:00pm 35.4 NNE 11 13 1014.8 - 0.0 - - 10 - - - -
18/01:30pm 34.8 NNE 12 15 1015.1 - 0.0 - - 10 - - - -
18/01:00pm 34.6 NNE 11 14 1015.4 - 0.0 - - 10 - - - -

Other Formats:

Comma delimited format used in spreadsheet applications
http://www.bom.gov.au/fwo/IDW60701/IDW60701.95307.axf

JavaScript Object Notation format (JSON) in row-major order
http://www.bom.gov.au/fwo/IDW60701/IDW60701.95307.json